Time;durP1;ratioP1;P1;durP2;ratioP2;P2;SDS_P1;SDS_P2;PMS_P1;PMS_P2;Temp;Humidity;BMP_temperature;BMP_pressure;BME280_temperature;BME280_humidity;BME280_pressure;Samples;Min_cycle;Max_cycle;Signal;HPM_P1;HPM_P2
2021/09/10 00:00:56;;;;;;;22.27;15.55;;;;;;;13.35;100.00;100987.84;4828127;29;20040;-84
2021/09/10 00:03:21;;;;;;;20.73;16.40;;;;;;;13.61;100.00;101041.81;4829448;29;20015;-83
2021/09/10 00:05:47;;;;;;;21.95;16.70;;;;;;;14.15;100.00;101133.59;4812612;29;20027;-84
2021/09/10 00:08:13;;;;;;;21.00;17.33;;;;;;;13.15;100.00;100980.59;4827307;29;20041;-84
2021/09/10 00:10:38;;;;;;;24.08;19.33;;;;;;;13.52;100.00;101031.47;4827709;29;20099;-82
2021/09/10 00:13:04;;;;;;;27.48;20.45;;;;;;;13.37;100.00;101019.00;4811527;29;20039;-83
2021/09/10 00:15:30;;;;;;;25.05;19.48;;;;;;;13.25;100.00;101006.38;4814379;29;20019;-83
2021/09/10 00:17:56;;;;;;;25.27;19.50;;;;;;;14.06;100.00;101131.13;4826941;29;20512;-83
2021/09/10 00:20:22;;;;;;;30.05;21.58;;;;;;;12.97;100.00;100958.81;4827861;29;20031;-83
2021/09/10 00:22:48;;;;;;;33.63;22.52;;;;;;;13.53;100.00;101052.88;4826171;29;20054;-83
2021/09/10 00:25:14;;;;;;;32.22;22.23;;;;;;;14.04;100.00;101135.09;4827490;29;20034;-84
2021/09/10 00:27:40;;;;;;;31.67;23.23;;;;;;;13.19;100.00;100988.28;4812233;29;20062;-83
2021/09/10 00:30:08;;;;;;;30.15;21.45;;;;;;;13.30;100.00;101020.06;4827272;29;20031;-82
2021/09/10 00:32:35;;;;;;;29.00;22.55;;;;;;;13.38;100.00;101028.81;4825615;29;20084;-83
2021/09/10 00:35:03;;;;;;;29.77;23.08;;;;;;;13.18;100.00;100992.88;4806144;29;20030;-83
2021/09/10 00:37:30;;;;;;;30.75;22.98;;;;;;;13.94;100.00;101116.63;4839583;29;20050;-83
2021/09/10 00:39:55;;;;;;;34.63;25.92;;;;;;;13.96;100.00;101117.22;4845267;29;20113;-83
2021/09/10 00:42:21;;;;;;;33.28;25.48;;;;;;;13.08;100.00;100985.19;4830308;29;20035;-82
2021/09/10 00:44:46;;;;;;;37.85;27.02;;;;;;;13.14;100.00;101005.97;4809562;30;20040;-84
2021/09/10 00:47:13;;;;;;;36.17;27.13;;;;;;;13.54;100.00;101057.25;4810166;29;20054;-84
2021/09/10 00:49:39;;;;;;;37.25;28.15;;;;;;;13.21;100.00;101016.75;4824238;29;20050;-83
2021/09/10 00:52:05;;;;;;;34.70;26.55;;;;;;;12.88;100.00;100973.56;4808396;30;20024;-83
2021/09/10 00:54:31;;;;;;;37.97;29.02;;;;;;;13.17;100.00;101032.53;4811080;29;20047;-82
2021/09/10 00:56:59;;;;;;;37.25;28.42;;;;;;;12.93;100.00;100990.00;4811765;29;20020;-83
2021/09/10 00:59:25;;;;;;;44.28;29.10;;;;;;;13.29;100.00;101045.44;4812013;29;20026;-83
2021/09/10 01:01:54;;;;;;;37.75;29.08;;;;;;;13.48;100.00;101068.91;4826813;29;20106;-83
2021/09/10 01:04:25;;;;;;;37.35;28.63;;;;;;;12.78;100.00;100967.75;4826015;29;20055;-83
2021/09/10 01:06:52;;;;;;;42.58;29.27;;;;;;;13.75;100.00;101122.91;4818180;29;20031;-82
2021/09/10 01:09:20;;;;;;;38.40;30.13;;;;;;;13.19;100.00;101042.31;4794029;30;20071;-83
2021/09/10 01:11:48;;;;;;;36.50;27.50;;;;;;;12.77;100.00;100979.63;4815155;29;20042;-83
2021/09/10 01:14:15;;;;;;;42.50;31.38;;;;;;;12.89;100.00;101004.97;4813178;29;20114;-82
2021/09/10 01:16:42;;;;;;;44.78;29.85;;;;;;;13.14;100.00;101049.19;4814662;29;20019;-83
2021/09/10 01:19:07;;;;;;;35.13;27.67;;;;;;;12.96;100.00;101019.28;4814333;29;20019;-83
2021/09/10 01:21:33;;;;;;;37.78;28.63;;;;;;;13.68;100.00;101141.03;4814248;29;20055;-84
2021/09/10 01:23:59;;;;;;;46.78;30.98;;;;;;;12.61;100.00;100970.91;4814191;29;20042;-83
2021/09/10 01:26:25;;;;;;;36.53;28.92;;;;;;;13.31;100.00;101075.78;4813340;29;20039;-83
2021/09/10 01:28:51;;;;;;;40.78;30.05;;;;;;;12.78;100.00;100986.66;4826087;29;20490;-82
2021/09/10 01:31:17;;;;;;;41.45;28.60;;;;;;;12.61;100.00;100970.06;4827946;29;20057;-84
2021/09/10 01:33:43;;;;;;;40.85;29.33;;;;;;;12.66;100.00;100973.00;4805265;29;20028;-84
2021/09/10 01:36:09;;;;;;;44.40;29.95;;;;;;;13.42;100.00;101085.13;4808109;30;20043;-83
2021/09/10 01:38:36;;;;;;;38.08;28.63;;;;;;;12.73;100.00;100976.50;4828370;29;20035;-83
2021/09/10 01:41:03;;;;;;;40.00;27.67;;;;;;;12.83;100.00;100995.81;4813238;29;20035;-81
2021/09/10 01:43:28;;;;;;;34.95;27.77;;;;;;;13.43;100.00;101067.88;4813899;29;20035;-82
2021/09/10 01:45:54;;;;;;;35.85;25.90;;;;;;;13.01;100.00;101003.25;4813175;29;20042;-84
2021/09/10 01:48:19;;;;;;;32.50;25.88;;;;;;;13.67;100.00;101121.25;4813660;29;20082;-82
2021/09/10 01:50:45;;;;;;;34.03;25.17;;;;;;;13.05;100.00;101026.13;4827980;29;20090;-84
2021/09/10 01:53:11;;;;;;;28.20;23.77;;;;;;;13.73;100.00;101125.81;4814243;29;20055;-83
2021/09/10 01:55:37;;;;;;;30.60;23.15;;;;;;;13.01;100.00;101024.88;4813935;29;20043;-84
2021/09/10 01:58:02;;;;;;;30.70;22.88;;;;;;;13.71;100.00;101133.31;4798771;29;20075;-82
2021/09/10 02:00:28;;;;;;;30.42;23.85;;;;;;;12.89;100.00;101010.34;4825585;29;20023;-81
2021/09/10 02:02:54;;;;;;;30.75;24.00;;;;;;;13.13;100.00;101035.88;4827569;29;20036;-82
2021/09/10 02:05:19;;;;;;;31.60;24.00;;;;;;;13.34;100.00;101078.06;4812060;29;20030;-81
2021/09/10 02:07:45;;;;;;;27.63;22.65;;;;;;;12.92;100.00;101008.06;4801999;29;20020;-81
2021/09/10 02:10:13;;;;;;;30.55;23.65;;;;;;;12.74;100.00;100986.25;4809366;29;20030;-80
2021/09/10 02:12:39;;;;;;;32.35;23.23;;;;;;;13.66;100.00;101133.13;4793796;29;20027;-81
2021/09/10 02:15:07;;;;;;;28.23;22.77;;;;;;;13.25;100.00;101063.97;4795410;30;20026;-82
2021/09/10 02:17:34;;;;;;;29.65;22.65;;;;;;;13.68;100.00;101132.94;4825087;29;20137;-82
2021/09/10 02:20:04;;;;;;;29.45;22.80;;;;;;;13.15;100.00;101053.53;4827814;29;20024;-82
2021/09/10 02:22:30;;;;;;;28.25;20.95;;;;;;;12.77;100.00;100993.13;4811684;29;20058;-81
2021/09/10 02:24:56;;;;;;;27.13;21.00;;;;;;;13.65;100.00;101127.94;4812289;29;20039;-81
2021/09/10 02:27:22;;;;;;;27.63;20.98;;;;;;;13.56;100.00;101114.63;4813380;29;20024;-81
2021/09/10 02:29:51;;;;;;;27.60;21.10;;;;;;;13.07;100.00;101039.41;4812813;29;20023;-81
2021/09/10 02:32:17;;;;;;;26.95;20.75;;;;;;;12.85;100.00;101009.94;4812708;29;20031;-80
2021/09/10 02:34:44;;;;;;;24.98;20.15;;;;;;;13.60;100.00;101120.44;4811983;29;20019;-80
2021/09/10 02:37:12;;;;;;;26.55;20.52;;;;;;;12.77;100.00;100999.34;4828561;29;20039;-81
2021/09/10 02:39:38;;;;;;;27.13;21.33;;;;;;;12.64;100.00;100978.56;4812800;29;20041;-80
2021/09/10 02:42:04;;;;;;;26.05;21.08;;;;;;;13.56;100.00;101130.84;4826123;29;20016;-80
2021/09/10 02:44:30;;;;;;;25.17;19.35;;;;;;;12.72;100.00;100999.16;4811748;29;20065;-81
2021/09/10 02:46:56;;;;;;;25.10;20.95;;;;;;;13.50;100.00;101130.84;4812422;29;20034;-81
2021/09/10 02:49:23;;;;;;;25.88;20.83;;;;;;;12.92;100.00;101036.94;4801746;29;20032;-79
2021/09/10 02:51:49;;;;;;;25.45;20.48;;;;;;;13.43;100.00;101117.34;4803375;29;20032;-80
2021/09/10 02:54:16;;;;;;;26.23;21.45;;;;;;;12.50;100.00;100982.31;4812160;29;20019;-81
2021/09/10 02:56:42;;;;;;;28.30;21.67;;;;;;;13.29;100.00;101102.22;4811592;29;20023;-80
2021/09/10 02:59:08;;;;;;;27.98;22.13;;;;;;;13.33;100.00;101134.00;4812442;29;20046;-81
2021/09/10 03:01:35;;;;;;;27.55;21.98;;;;;;;12.40;100.00;100963.03;4811887;29;20051;-81
2021/09/10 03:04:03;;;;;;;32.65;22.65;;;;;;;12.37;100.00;100979.63;4812038;29;20059;-81
2021/09/10 03:06:29;;;;;;;27.08;21.90;;;;;;;12.31;100.00;100972.34;4813591;29;20090;-81
2021/09/10 03:08:55;;;;;;;32.47;24.27;;;;;;;13.15;100.00;101109.47;4829407;29;20011;-82
2021/09/10 03:11:21;;;;;;;27.30;22.48;;;;;;;13.09;100.00;101107.59;4828432;29;20023;-81
2021/09/10 03:13:46;;;;;;;29.08;22.15;;;;;;;13.06;100.00;101111.53;4825621;29;20072;-80
2021/09/10 03:16:12;;;;;;;32.15;23.58;;;;;;;13.03;100.00;101114.66;4825908;29;20045;-81
2021/09/10 03:18:38;;;;;;;29.10;23.30;;;;;;;12.12;100.00;100960.50;4810715;29;20027;-81
2021/09/10 03:21:05;;;;;;;28.25;22.92;;;;;;;12.10;100.00;100960.72;4812359;29;20031;-80
2021/09/10 03:23:31;;;;;;;32.95;24.48;;;;;;;13.02;100.00;101102.19;4807933;29;20019;-81
2021/09/10 03:25:58;;;;;;;32.10;23.70;;;;;;;12.79;100.00;101074.75;4805642;29;20034;-81
2021/09/10 03:28:23;;;;;;;32.45;24.85;;;;;;;13.02;100.00;101104.06;4822069;29;20121;-81
2021/09/10 03:30:52;;;;;;;30.83;25.05;;;;;;;12.06;100.00;100947.84;4806711;29;20031;-81
2021/09/10 03:33:20;;;;;;;30.55;23.70;;;;;;;12.23;100.00;100984.19;4791825;29;20031;-80
2021/09/10 03:35:50;;;;;;;32.35;25.98;;;;;;;12.23;100.00;100979.59;4806771;29;20087;-81
2021/09/10 03:38:16;;;;;;;30.73;24.90;;;;;;;12.42;100.00;101004.13;4807346;29;20023;-80
2021/09/10 03:40:41;;;;;;;31.38;25.10;;;;;;;12.68;100.00;101041.09;4820757;29;20031;-81
2021/09/10 03:43:08;;;;;;;32.33;25.85;;;;;;;12.22;100.00;100961.78;4804805;29;20047;-81
2021/09/10 03:45:35;;;;;;;31.98;24.65;;;;;;;12.99;100.00;101110.72;4820855;29;20039;-81
2021/09/10 03:48:01;;;;;;;32.40;25.33;;;;;;;12.45;100.00;101030.72;4806581;29;20035;-81
2021/09/10 03:50:27;;;;;;;31.92;25.75;;;;;;;12.24;100.00;100985.84;4806366;29;20035;-81
2021/09/10 03:52:54;;;;;;;34.80;24.90;;;;;;;12.33;100.00;101006.19;4804524;29;20034;-81
2021/09/10 03:55:20;;;;;;;36.28;25.58;;;;;;;12.32;100.00;101011.81;4805438;29;20060;-80
2021/09/10 03:57:45;;;;;;;30.88;24.60;;;;;;;11.94;100.00;100953.81;4803270;29;20031;-80
2021/09/10 04:00:11;;;;;;;33.25;25.15;;;;;;;12.03;100.00;100959.88;4805150;30;20105;-80
2021/09/10 04:02:37;;;;;;;33.58;25.10;;;;;;;12.24;100.00;101015.50;4803369;30;20052;-80
2021/09/10 04:05:04;;;;;;;33.67;24.63;;;;;;;12.29;100.00;101012.22;4805609;29;20043;-80
2021/09/10 04:07:29;;;;;;;33.97;25.10;;;;;;;12.29;100.00;101025.72;4817858;29;20035;-81
2021/09/10 04:09:56;;;;;;;32.85;25.75;;;;;;;12.25;100.00;101013.63;4818706;29;20035;-80
2021/09/10 04:12:22;;;;;;;33.65;25.90;;;;;;;12.66;100.00;101079.09;4798995;29;20027;-81
2021/09/10 04:14:48;;;;;;;35.88;26.30;;;;;;;12.66;100.00;101092.59;4801431;29;20039;-80
2021/09/10 04:17:15;;;;;;;33.17;25.60;;;;;;;12.65;100.00;101084.72;4801213;29;20366;-78
2021/09/10 04:19:40;;;;;;;34.50;25.60;;;;;;;12.58;100.00;101075.75;4815039;29;20036;-76
2021/09/10 04:22:06;;;;;;;36.40;26.85;;;;;;;12.48;100.00;101065.34;4819676;29;20126;-80
2021/09/10 04:24:31;;;;;;;34.75;27.42;;;;;;;12.61;100.00;101092.38;4801378;29;20043;-80
2021/09/10 04:26:57;;;;;;;34.00;26.13;;;;;;;12.61;100.00;101086.97;4815081;29;20056;-79
2021/09/10 04:29:22;;;;;;;31.80;24.85;;;;;;;12.57;100.00;101079.50;4817999;29;20035;-80
2021/09/10 04:31:47;;;;;;;32.60;25.85;;;;;;;12.59;100.00;101083.66;4789312;30;20159;-80
2021/09/10 04:34:14;;;;;;;31.75;24.95;;;;;;;12.58;100.00;101094.66;4816962;29;20553;-80
2021/09/10 04:36:39;;;;;;;34.03;25.60;;;;;;;12.51;100.00;101080.31;4822441;29;20043;-81
2021/09/10 04:39:06;;;;;;;29.63;25.23;;;;;;;12.58;100.00;101089.25;4826483;29;20070;-80
2021/09/10 04:41:31;;;;;;;36.78;25.50;;;;;;;12.58;100.00;101089.25;4826727;29;20032;-80
2021/09/10 04:43:58;;;;;;;31.73;25.80;;;;;;;12.58;100.00;101092.81;4811393;29;20055;-80
2021/09/10 04:46:25;;;;;;;33.47;25.40;;;;;;;12.55;100.00;101084.25;4814159;29;20069;-80
2021/09/10 04:48:50;;;;;;;34.10;26.52;;;;;;;12.53;100.00;101087.19;4829773;29;20031;-81
2021/09/10 04:51:16;;;;;;;34.50;27.05;;;;;;;12.61;100.00;101099.66;4821362;29;20030;-80
2021/09/10 04:53:41;;;;;;;34.13;26.67;;;;;;;12.59;100.00;101080.16;4807755;29;20062;-80
2021/09/10 04:56:07;;;;;;;33.10;26.23;;;;;;;12.78;100.00;101086.56;4806077;29;20049;-81
2021/09/10 04:58:33;;;;;;;32.75;26.25;;;;;;;13.19;100.00;101099.06;4792361;29;20042;-79
2021/09/10 05:01:04;;;;;;;34.13;26.38;;;;;;;13.44;100.00;101100.09;4821334;29;20045;-80
2021/09/10 05:03:30;;;;;;;38.08;28.15;;;;;;;13.66;100.00;101108.78;4824108;29;20035;-80
2021/09/10 05:05:56;;;;;;;36.22;27.25;;;;;;;13.86;100.00;101097.91;4821882;29;20049;-79
2021/09/10 05:08:21;;;;;;;38.53;27.95;;;;;;;14.07;100.00;101094.91;4802277;29;20038;-82
2021/09/10 05:10:46;;;;;;;40.75;27.65;;;;;;;14.15;100.00;101074.88;4822887;29;20018;-81
2021/09/10 05:13:12;;;;;;;35.25;27.45;;;;;;;14.51;100.00;101097.84;4824640;29;20076;-81
2021/09/10 05:15:37;;;;;;;33.63;26.35;;;;;;;14.75;100.00;101101.63;4821329;29;20106;-81
2021/09/10 05:18:03;;;;;;;33.03;25.17;;;;;;;14.94;99.24;101095.22;4824894;29;20035;-80
2021/09/10 05:20:28;;;;;;;32.90;25.38;;;;;;;15.16;98.50;101102.97;4810703;29;20073;-83
2021/09/10 05:22:54;;;;;;;32.30;24.77;;;;;;;15.41;97.32;101101.06;4811098;29;20038;-82
2021/09/10 05:25:22;;;;;;;31.35;24.02;;;;;;;15.65;96.29;101106.66;4830452;29;20044;-82
2021/09/10 05:27:48;;;;;;;32.78;24.50;;;;;;;15.43;97.04;101109.81;4824116;29;20030;-82
2021/09/10 05:30:14;;;;;;;28.20;23.40;;;;;;;14.97;99.38;101099.38;4822591;29;20484;-81
2021/09/10 05:32:39;;;;;;;28.48;24.02;;;;;;;14.77;100.00;101103.06;4794340;29;20037;-81
2021/09/10 05:35:05;;;;;;;27.27;22.75;;;;;;;14.70;100.00;101101.44;4824492;29;20041;-82
2021/09/10 05:37:30;;;;;;;25.55;21.75;;;;;;;14.58;100.00;101090.50;4825281;29;20026;-82
2021/09/10 05:39:56;;;;;;;27.50;22.63;;;;;;;14.61;100.00;101102.78;4816773;29;20014;-83
2021/09/10 05:42:21;;;;;;;27.75;22.50;;;;;;;14.60;100.00;101103.81;4813738;29;20033;-82
2021/09/10 05:44:48;;;;;;;31.15;21.88;;;;;;;14.63;100.00;101092.53;4823665;29;20097;-83
2021/09/10 05:47:13;;;;;;;27.30;22.33;;;;;;;14.60;100.00;101084.84;4813016;29;20028;-82
2021/09/10 05:49:40;;;;;;;23.77;20.77;;;;;;;14.63;100.00;101071.69;4810109;29;20103;-83
2021/09/10 05:52:10;;;;;;;25.15;21.08;;;;;;;14.95;100.00;101115.03;4821165;29;20058;-82
2021/09/10 05:54:36;;;;;;;25.25;20.95;;;;;;;15.06;100.00;101111.59;4818733;29;20043;-82
2021/09/10 05:57:03;;;;;;;27.70;20.25;;;;;;;15.16;100.00;101102.97;4800165;29;20032;-81
2021/09/10 05:59:28;;;;;;;22.83;20.23;;;;;;;15.21;100.00;101108.56;4806599;29;20050;-83
2021/09/10 06:07:00;;;;;;;24.52;19.90;;;;;;;14.58;100.00;100979.47;4832956;29;20066;-82
2021/09/10 06:12:01;;;;;;;23.40;19.45;;;;;;;15.04;100.00;101027.81;5334481;24;20058;-81
2021/09/10 06:14:27;;;;;;;21.50;19.20;;;;;;;15.70;100.00;101115.81;4813497;29;20010;-83
2021/09/10 06:16:53;;;;;;;22.67;19.45;;;;;;;15.57;100.00;101053.53;4814759;29;20034;-82
2021/09/10 06:21:54;;;;;;;20.30;18.08;;;;;;;15.50;99.56;101018.34;5421709;24;20046;-79
2021/09/10 06:24:20;;;;;;;21.42;18.27;;;;;;;15.59;98.98;101018.88;4815305;29;20096;-82
2021/09/10 06:26:46;;;;;;;23.40;18.20;;;;;;;15.61;98.46;101013.22;4826826;29;20015;-84
2021/09/10 06:29:12;;;;;;;22.42;17.70;;;;;;;15.35;98.27;100949.28;4822263;29;20031;-82
2021/09/10 06:41:59;;;;;;;22.25;16.73;;;;;;;16.43;96.74;101044.28;5845677;24;20288;-78
2021/09/10 06:47:00;;;;;;;17.73;14.70;;;;;;;17.18;96.01;101119.00;5352326;24;20268;-82
2021/09/10 06:49:27;;;;;;;19.48;15.27;;;;;;;16.42;95.53;100982.03;4825154;29;20018;-83
2021/09/10 06:51:53;;;;;;;24.98;15.50;;;;;;;16.49;94.76;100976.50;4826598;29;20052;-82
2021/09/10 06:54:19;;;;;;;20.52;15.02;;;;;;;17.60;94.69;101113.44;5405944;24;20047;-82
2021/09/10 06:56:48;;;;;;;19.05;14.25;;;;;;;17.75;94.31;101118.41;4813880;29;20074;-82
2021/09/10 06:59:16;;;;;;;20.40;14.20;;;;;;;16.86;93.83;100948.09;4812490;29;20035;-82
2021/09/10 07:01:43;;;;;;;19.52;14.40;;;;;;;16.98;92.97;100949.97;4828888;29;20030;-82
2021/09/10 07:04:09;;;;;;;22.80;14.43;;;;;;;18.14;92.74;101122.22;4812032;29;20011;-82
2021/09/10 07:06:35;;;;;;;20.92;14.30;;;;;;;17.62;91.96;101016.09;4817342;29;20035;-82
2021/09/10 07:09:00;;;;;;;15.15;12.68;;;;;;;18.47;91.35;101134.31;4827479;29;20130;-81
2021/09/10 07:11:26;;;;;;;16.35;13.13;;;;;;;18.64;90.61;101126.19;4828868;29;20015;-81
2021/09/10 07:13:51;;;;;;;18.58;12.50;;;;;;;18.03;89.77;101016.91;4812693;29;20015;-81
2021/09/10 07:16:17;;;;;;;16.13;12.13;;;;;;;17.93;88.83;100982.16;4813140;29;20039;-82
2021/09/10 07:18:43;;;;;;;16.27;12.40;;;;;;;18.04;88.05;100988.59;4813257;29;20083;-82
2021/09/10 07:21:09;;;;;;;19.95;12.07;;;;;;;18.98;87.37;101129.81;4827191;29;20043;-82
2021/09/10 07:23:35;;;;;;;17.65;11.48;;;;;;;18.35;86.74;101009.06;4813297;29;20026;-82
2021/09/10 07:26:04;;;;;;;21.88;12.10;;;;;;;18.15;85.96;100978.75;4813317;29;20031;-82
2021/09/10 07:28:34;;;;;;;15.68;10.45;;;;;;;18.94;85.09;101094.06;4828814;29;20022;-82
2021/09/10 07:31:00;;;;;;;19.75;11.27;;;;;;;18.56;83.95;101007.50;4827723;29;20100;-82
2021/09/10 07:33:27;;;;;;;14.43;10.68;;;;;;;18.31;82.97;100953.44;4827341;29;20027;-82
2021/09/10 07:35:54;;;;;;;17.13;10.43;;;;;;;18.53;82.40;100965.22;4814036;29;20041;-82
2021/09/10 07:40:55;;;;;;;16.73;10.40;;;;;;;19.09;81.58;101024.44;5102510;24;20054;-82
2021/09/10 07:43:21;;;;;;;20.48;9.65;;;;;;;19.75;80.59;101111.91;4829128;29;20065;-82
2021/09/10 07:45:47;;;;;;;14.55;9.07;;;;;;;19.97;79.94;101148.25;4833646;29;20091;-81
2021/09/10 07:48:12;;;;;;;18.63;9.50;;;;;;;19.79;79.44;101093.94;4813950;29;20049;-83
2021/09/10 07:50:39;;;;;;;16.42;9.88;;;;;;;19.83;79.01;101084.16;4826883;29;20047;-81
2021/09/10 07:53:05;;;;;;;18.27;10.55;;;;;;;19.53;78.71;101006.22;4829635;29;20027;-82
2021/09/10 07:55:31;;;;;;;15.32;9.75;;;;;;;19.56;77.22;101013.06;4814368;29;20046;-82
2021/09/10 07:58:00;;;;;;;13.15;9.18;;;;;;;20.02;77.03;101085.47;4828859;29;20045;-82
2021/09/10 08:00:26;;;;;;;12.65;8.93;;;;;;;20.48;77.13;101139.84;4814538;29;20047;-82
2021/09/10 08:02:52;;;;;;;14.15;9.65;;;;;;;20.49;77.03;101133.28;4815984;29;20116;-82
2021/09/10 08:05:19;;;;;;;12.90;9.02;;;;;;;19.67;76.66;100982.13;4819173;29;20035;-82
2021/09/10 08:07:46;;;;;;;13.52;9.43;;;;;;;19.87;76.37;101006.13;4798661;29;20082;-82
2021/09/10 08:10:16;;;;;;;13.98;9.10;;;;;;;20.90;75.87;101148.22;4822379;29;20019;-82
2021/09/10 08:12:45;;;;;;;11.10;8.93;;;;;;;20.33;74.65;101045.66;4830056;29;20026;-83
2021/09/10 08:15:15;;;;;;;12.82;8.07;;;;;;;21.03;73.71;101139.59;4843539;29;20022;-81
2021/09/10 08:17:46;;;;;;;9.88;8.18;;;;;;;20.87;72.59;101102.25;4847328;29;20063;-82
2021/09/10 08:20:13;;;;;;;12.02;8.15;;;;;;;20.49;71.87;101041.16;4816368;29;20038;-82
2021/09/10 08:40:46;;;;;;;11.70;6.25;;;;;;;20.83;64.38;101030.00;4927136;24;20105;-82
2021/09/10 08:43:13;;;;;;;7.70;5.90;;;;;;;20.60;64.38;100979.25;4832410;29;20023;-83
2021/09/10 10:18:09;;;;;;;7.88;5.15;;;;;;;23.48;51.57;101092.13;5562400;24;20029;31
2021/09/10 10:49:06;;;;;;;10.50;5.03;;;;;;;24.05;50.42;101104.63;5443679;24;20042;-82
2021/09/10 10:51:32;;;;;;;9.00;5.90;;;;;;;24.09;49.97;101094.72;4814091;29;20015;-82
2021/09/10 13:19:12;;;;;;;6.88;5.72;;;;;;;23.70;53.68;100982.75;5682048;24;20078;-81
2021/09/10 14:44:08;;;;;;;9.35;6.85;;;;;;;21.90;58.81;100860.75;5623121;24;20182;-81
2021/09/10 14:46:34;;;;;;;11.27;6.68;;;;;;;22.21;58.69;100915.56;4820280;29;20027;-81
2021/09/10 14:56:46;;;;;;;15.02;7.65;;;;;;;22.89;59.87;101042.25;5287402;24;20039;-81
2021/09/10 14:59:25;;;;;;;10.88;7.05;;;;;;;22.82;60.14;101028.00;5015067;24;20061;-81
2021/09/10 15:01:53;;;;;;;14.82;7.35;;;;;;;22.72;60.26;101014.28;4868511;29;20021;-81
2021/09/10 15:04:20;;;;;;;7.68;6.88;;;;;;;22.73;60.00;101024.97;4852265;29;20021;-81
2021/09/10 15:06:46;;;;;;;12.00;6.63;;;;;;;22.81;59.92;101026.34;4851109;29;20107;-82
2021/09/10 15:09:12;;;;;;;11.43;6.75;;;;;;;22.81;59.70;101034.56;4922539;24;20054;-82
2021/09/10 15:11:39;;;;;;;7.93;6.80;;;;;;;21.66;60.26;100865.13;4797036;29;20046;-80
2021/09/10 15:19:14;;;;;;;8.68;6.88;;;;;;;22.56;60.67;101029.94;5763927;24;20038;-81
2021/09/10 15:21:40;;;;;;;9.05;6.85;;;;;;;21.46;60.47;100844.81;4799716;29;20027;-81
2021/09/10 15:24:06;;;;;;;11.55;6.85;;;;;;;21.51;60.56;100841.25;4809941;29;20066;-82
2021/09/10 15:29:07;;;;;;;10.38;7.38;;;;;;;22.20;61.44;100976.97;4969849;24;20070;-82
2021/09/10 15:36:44;;;;;;;11.48;7.22;;;;;;;21.04;62.78;100829.31;5764499;24;20018;-81
2021/09/10 16:55:05;;;;;;;13.25;8.93;;;;;;;19.42;76.08;100884.38;5167854;24;20078;-82
2021/09/10 17:05:16;;;;;;;14.35;9.07;;;;;;;18.86;77.50;100829.16;5086189;24;20080;-80
2021/09/10 17:07:42;;;;;;;15.40;9.35;;;;;;;18.68;77.58;100814.72;4806331;29;20681;-85
2021/09/10 17:33:26;;;;;;;14.48;9.85;;;;;;;18.11;80.00;100815.00;4831354;24;20043;-84
2021/09/10 17:43:38;;;;;;;12.07;9.88;;;;;;;18.04;80.48;100834.22;5721268;24;20797;-82
2021/09/10 17:46:06;;;;;;;11.57;9.30;;;;;;;18.73;80.50;100948.38;4830517;29;20068;-82
2021/09/10 17:51:07;;;;;;;13.18;9.50;;;;;;;19.10;80.59;101010.53;4847877;29;20046;-81
2021/09/10 17:53:33;;;;;;;14.05;9.77;;;;;;;18.10;80.62;100861.53;4826120;29;20052;-82
2021/09/10 17:55:59;;;;;;;11.73;8.95;;;;;;;17.79;80.61;100817.50;4844229;29;20034;-81
2021/09/10 17:58:27;;;;;;;11.95;9.25;;;;;;;18.20;80.48;100891.66;4826681;29;20033;-81
2021/09/10 18:00:55;;;;;;;11.52;9.35;;;;;;;17.86;80.49;100845.38;4847523;29;20026;-81
2021/09/10 18:03:21;;;;;;;11.80;9.25;;;;;;;18.38;80.73;100939.63;4840317;29;20027;-82
2021/09/10 18:05:46;;;;;;;11.65;9.38;;;;;;;18.21;80.77;100917.81;4833606;29;20042;-79
2021/09/10 18:08:12;;;;;;;11.95;9.70;;;;;;;18.11;80.96;100904.84;4845669;29;20031;-81
2021/09/10 18:10:40;;;;;;;12.57;9.90;;;;;;;17.92;80.68;100887.13;4844415;29;20014;-84
2021/09/10 18:18:17;;;;;;;13.70;9.60;;;;;;;18.80;81.46;101049.06;5560227;24;20059;-83
2021/09/10 18:20:43;;;;;;;14.30;9.50;;;;;;;17.60;81.56;100847.59;4829302;29;20037;-83
2021/09/10 18:23:09;;;;;;;13.07;10.13;;;;;;;17.90;81.62;100903.69;4829831;29;20038;-81
2021/09/10 18:28:10;;;;;;;16.52;10.05;;;;;;;18.37;81.91;100982.38;4906649;24;20034;-82
2021/09/10 18:30:36;;;;;;;11.02;9.05;;;;;;;17.73;81.87;100890.03;4829402;29;20110;-83
2021/09/10 18:33:02;;;;;;;10.38;8.77;;;;;;;18.03;81.81;100932.50;4829218;29;20011;-83
2021/09/10 18:35:28;;;;;;;11.63;9.73;;;;;;;17.79;81.83;100913.56;4828420;29;20026;-83
2021/09/10 18:37:53;;;;;;;12.25;9.77;;;;;;;17.62;82.12;100877.31;4808705;29;20042;-82
2021/09/10 18:40:19;;;;;;;12.15;9.63;;;;;;;17.95;82.32;100933.75;4819380;29;20029;-82
2021/09/10 20:05:52;;;;;;;39.50;35.08;;;;;;;16.94;100.00;100954.22;2840827;24;20239;-82
2021/09/10 20:32:41;;;;;;;44.90;36.95;;;;;;;16.38;100.00;100926.53;5748364;24;20029;-80
2021/09/10 20:37:43;;;;;;;46.25;38.63;;;;;;;17.47;100.00;101086.50;4864430;24;20064;-85
2021/09/10 20:40:10;;;;;;;43.88;37.30;;;;;;;17.26;100.00;101061.56;4809703;29;20019;-83
2021/09/10 20:42:37;;;;;;;44.17;38.22;;;;;;;16.77;100.00;100995.69;4811099;29;20119;-82
2021/09/10 20:45:03;;;;;;;50.88;40.15;;;;;;;16.53;100.00;100945.13;4813126;29;20035;-83
2021/09/10 20:47:29;;;;;;;48.08;42.42;;;;;;;16.50;100.00;100956.44;4828466;29;20080;-82
2021/09/10 20:49:54;;;;;;;53.15;44.08;;;;;;;17.28;100.00;101089.31;4829103;29;20007;-83
2021/09/10 20:52:25;;;;;;;60.45;46.17;;;;;;;16.90;100.00;101033.53;4822632;29;20071;-83
2021/09/10 21:00:03;;;;;;;56.75;42.50;;;;;;;17.29;100.00;101077.41;5211168;24;20047;-83
2021/09/10 21:15:23;;;;;;;59.78;46.97;;;;;;;16.86;100.00;101028.81;5060056;24;20042;-82
2021/09/10 21:17:49;;;;;;;59.25;46.17;;;;;;;17.27;100.00;101086.84;4832380;29;20086;-83
2021/09/10 21:25:26;;;;;;;55.03;42.65;;;;;;;16.65;100.00;100992.97;5573352;24;20084;-83
2021/09/10 21:27:51;;;;;;;46.85;39.58;;;;;;;17.32;100.00;101092.44;4822814;29;20135;-84
2021/09/10 21:30:17;;;;;;;47.40;39.17;;;;;;;17.31;100.00;101088.84;4816403;29;20045;-82
2021/09/10 21:32:43;;;;;;;46.78;37.05;;;;;;;17.00;100.00;101034.84;4816378;29;20505;-83
2021/09/10 21:35:09;;;;;;;51.45;41.08;;;;;;;16.72;100.00;100998.28;4815690;29;20023;-82
2021/09/10 21:37:36;;;;;;;46.95;38.10;;;;;;;16.48;100.00;100955.84;4815703;29;20027;-83
2021/09/10 21:40:03;;;;;;;51.55;41.03;;;;;;;16.75;100.00;101013.31;4831649;29;20045;-83
2021/09/10 21:42:30;;;;;;;54.28;39.95;;;;;;;16.64;100.00;100991.28;4831859;29;20022;-83
2021/09/10 22:13:23;;;;;;;51.63;42.08;;;;;;;16.83;100.00;101010.25;5836319;24;20329;-80
2021/09/10 22:15:50;;;;;;;57.63;44.42;;;;;;;17.37;100.00;101087.91;4811467;29;20058;-81
2021/09/10 22:18:16;;;;;;;53.10;44.25;;;;;;;16.54;100.00;100973.91;4796854;29;20046;-82
2021/09/10 22:20:45;;;;;;;57.75;48.30;;;;;;;16.65;100.00;100982.09;4813965;29;20043;-83
2021/09/10 22:23:11;;;;;;;46.50;41.13;;;;;;;17.10;100.00;101063.09;4824559;29;20086;-81
2021/09/10 22:25:37;;;;;;;56.25;46.13;;;;;;;17.37;100.00;101087.91;4812215;29;20031;-81
2021/09/10 22:28:03;;;;;;;57.70;46.72;;;;;;;17.36;100.00;101097.13;4797245;30;20045;-80
2021/09/10 22:30:29;;;;;;;71.90;52.47;;;;;;;17.37;100.00;101084.38;4810720;29;20054;-81
2021/09/10 22:32:55;;;;;;;67.30;51.00;;;;;;;16.37;100.00;100925.72;4816680;29;20018;-80
2021/09/10 22:35:24;;;;;;;64.88;49.92;;;;;;;16.63;100.00;100967.91;4818268;29;20355;-81
2021/09/10 22:37:55;;;;;;;61.22;49.67;;;;;;;16.61;100.00;100974.63;4792549;30;20023;-81
2021/09/10 22:40:20;;;;;;;73.93;51.38;;;;;;;17.36;100.00;101085.44;4795510;30;20034;-84
2021/09/10 22:42:46;;;;;;;66.93;50.08;;;;;;;16.64;100.00;100975.00;4807708;29;20058;-83